Tanger, Morocco

13:02 WET le 19 janvier 2017 (GMT +0000)
Gibraltar Air Base | | Change Station

Alt. 16 ft 36.15 °N, 5.35 °W | Updated 12 minutes ago

Nuageux
Nuageux
46 ° F
Paraît 45 ° F
N
4
Vent Variable Vent de ONO

Aujourd'hui
Haut(e) -- | Bas -- ° F
--% Risque de précip.
Hier
Haut(e) -- | Bas -- ° F
Precip. -- pouce
Pression 29.95 pouce
Visibilité 6.2 Miles terrestres
Nuages Peu 3500 ft
Nuageux 20000 ft
Refroidissement éolien 45 ° F
Point de rosée 39 ° F
Humidité 76%
Précipitations 0.00 pouce
Profondeur de la couche neigeuse Non disponible.
7:31 AM 5:37 PM
Lune gibbeuse décroissante, 54% visible
METAR LXGB 191250Z 30003KT 9999 FEW035 BKN200 08/04 Q1014 NOSIG
Pression 29.95 pouce
Visibilité 6.2 Miles terrestres
Nuages Peu 3500 ft
Nuageux 20000 ft
Refroidissement éolien 45 ° F
Point de rosée 39 ° F
Humidité 76%
Précipitations 0.00 pouce
Profondeur de la couche neigeuse Non disponible.
7:31 AM 5:37 PM
Lune gibbeuse décroissante, 54% visible
METAR LXGB 191250Z 30003KT 9999 FEW035 BKN200 08/04 Q1014 NOSIG

Get Your Daily Forecast Email!

Thanks for signing up!

Be on the lookout for a verification email in your inbox.

You'll start receiving the daily forecast at 8 AM.

×

10-Day Weather Forecast

No radar image for this location.
×

Almanac

Astronomie

Jan. 19, 2017 Lever Coucher
Temps réel
Crépuscule civil
Crépuscule nautique
Crépuscule astronomique
Lune
Durée de lumière visible
Longueur du jour
Tomorrow will be .
, % of the Moon is Illuminated

Extrêmes aujourd'hui

Country Highs Country Lows

Community

WunderPhotos

Upload Photos

1,962,540 Photos téléchargées !

WunderBlog® & News

Nearby

Qualité de l'air

  Qualité de l'air Indice de la qualité de l'air Polluant
Not available.

Épaisseur de neige

Station Depth Altitude

Activité sismique

Ville Distance Mag. Time & Date
Minimum magnitude displayed is 2.5.

Températures des eaux côtières

Lieu Température

Stations

Stations météo à proximité

Emplacement de la station Température Refroidissement éolien Point de rosée Humidité Vent Precip. Alt. Mise à jour Type